createdAt,value
2018-07-03T00:01:38.344Z,12.50
2018-07-03T00:04:06.346Z,12.50
2018-07-03T00:06:34.425Z,12.50
2018-07-03T00:09:02.451Z,12.50
2018-07-03T00:11:30.360Z,12.40
2018-07-03T00:13:58.588Z,12.40
2018-07-03T00:16:32.056Z,12.40
2018-07-03T00:19:00.170Z,12.40
2018-07-03T00:21:28.089Z,12.40
2018-07-03T00:23:56.303Z,12.40
2018-07-03T00:26:24.234Z,12.20
2018-07-03T00:28:52.386Z,12.10
2018-07-03T00:31:20.291Z,11.90
2018-07-03T00:38:43.716Z,11.90
2018-07-03T00:41:11.652Z,11.90
2018-07-03T00:43:39.713Z,11.90
2018-07-03T00:46:07.734Z,11.90
2018-07-03T00:48:36.458Z,12.00
2018-07-03T00:51:04.382Z,11.90
2018-07-03T00:53:32.295Z,11.80
2018-07-03T00:56:00.178Z,11.80
2018-07-03T00:58:28.063Z,11.70
2018-07-03T01:00:55.950Z,11.70
2018-07-03T01:05:51.607Z,11.70
2018-07-03T01:08:19.841Z,11.70
2018-07-03T01:10:47.755Z,11.70
2018-07-03T01:13:15.652Z,11.80
2018-07-03T01:15:43.551Z,11.80
2018-07-03T01:18:11.595Z,11.80
2018-07-03T01:23:07.873Z,11.70
2018-07-03T01:28:03.499Z,11.60
2018-07-03T01:32:59.066Z,11.60
2018-07-03T01:35:27.911Z,11.60
2018-07-03T01:40:24.280Z,11.60
2018-07-03T01:42:53.124Z,11.40
2018-07-03T01:45:21.066Z,11.40
2018-07-03T01:47:49.292Z,11.30
2018-07-03T01:50:17.240Z,11.30
2018-07-03T01:52:45.127Z,11.30
2018-07-03T01:55:13.775Z,11.30
2018-07-03T02:00:09.494Z,11.30
2018-07-03T02:02:37.356Z,11.20
2018-07-03T02:05:05.302Z,11.20
2018-07-03T02:07:33.280Z,11.00
2018-07-03T02:10:01.182Z,11.00
2018-07-03T02:14:57.052Z,10.80
2018-07-03T02:19:52.732Z,10.90
2018-07-03T02:22:20.612Z,10.90
2018-07-03T02:24:48.624Z,10.90
2018-07-03T02:29:45.575Z,10.90
2018-07-03T02:32:13.487Z,10.90
2018-07-03T02:34:41.373Z,10.90
2018-07-03T02:37:09.478Z,10.90
2018-07-03T02:42:05.840Z,11.00
2018-07-03T02:44:33.851Z,11.00
2018-07-03T02:47:01.762Z,11.00
2018-07-03T02:51:57.426Z,10.90
2018-07-03T02:54:25.298Z,10.90
2018-07-03T02:59:20.941Z,10.80
2018-07-03T03:01:49.062Z,10.70
2018-07-03T03:09:13.095Z,10.60
2018-07-03T03:11:40.987Z,10.50
2018-07-03T03:14:08.943Z,10.50
2018-07-03T03:16:36.884Z,10.50
2018-07-03T03:21:32.791Z,10.50
2018-07-03T03:26:28.512Z,10.40
2018-07-03T03:28:56.476Z,10.30
2018-07-03T03:31:24.420Z,10.30
2018-07-03T03:33:52.288Z,10.30
2018-07-03T03:36:20.210Z,10.40
2018-07-03T03:38:48.763Z,10.40
2018-07-03T03:41:16.749Z,10.40
2018-07-03T03:43:45.518Z,10.50
2018-07-03T03:46:13.453Z,10.30
2018-07-03T03:48:41.495Z,10.20
2018-07-03T03:53:37.729Z,10.10
2018-07-03T03:56:06.142Z,10.10
2018-07-03T04:01:03.071Z,10.10
2018-07-03T04:03:31.004Z,10.20
2018-07-03T04:05:58.936Z,10.30
2018-07-03T04:08:27.515Z,10.20
2018-07-03T04:13:23.180Z,10.30
2018-07-03T04:15:51.110Z,10.40
2018-07-03T04:20:52.665Z,10.60
2018-07-03T04:23:20.771Z,10.60
2018-07-03T04:25:48.744Z,10.60
2018-07-03T04:28:17.729Z,10.80
2018-07-03T04:35:41.841Z,10.90
2018-07-03T04:38:09.793Z,11.00
2018-07-03T04:43:05.638Z,11.20
2018-07-03T04:45:33.685Z,11.30
2018-07-03T04:50:29.748Z,11.40
2018-07-03T04:55:26.495Z,11.60
2018-07-03T05:00:22.341Z,11.80
2018-07-03T05:07:46.704Z,12.20
2018-07-03T05:10:14.646Z,12.30
2018-07-03T05:12:42.551Z,12.40
2018-07-03T05:15:10.478Z,12.40
2018-07-03T05:17:38.387Z,12.60
2018-07-03T05:20:06.280Z,12.60
2018-07-03T05:22:34.224Z,12.80
2018-07-03T05:25:02.146Z,12.80
2018-07-03T05:27:31.612Z,13.00
2018-07-03T05:30:00.016Z,13.20
2018-07-03T05:32:28.048Z,13.40
2018-07-03T05:37:23.827Z,14.10
2018-07-03T05:39:51.770Z,14.50
2018-07-03T05:42:19.895Z,14.80
2018-07-03T05:44:47.836Z,15.00
2018-07-03T05:47:15.793Z,15.20
2018-07-03T05:49:44.349Z,15.50
2018-07-03T05:52:12.485Z,16.00
2018-07-03T05:54:40.513Z,16.40
2018-07-03T05:57:08.470Z,16.60
2018-07-03T05:59:37.061Z,16.90
2018-07-03T06:04:33.480Z,17.30
2018-07-03T06:07:01.933Z,17.50
2018-07-03T06:09:30.085Z,17.70
2018-07-03T06:11:58.300Z,17.80
2018-07-03T06:14:26.190Z,17.90
2018-07-03T06:16:54.726Z,18.20
2018-07-03T06:21:52.383Z,18.30
2018-07-03T06:26:49.836Z,18.60
2018-07-03T06:29:18.152Z,18.70
2018-07-03T06:34:14.978Z,19.20
2018-07-03T06:36:43.389Z,19.50
2018-07-03T06:39:12.870Z,19.50
2018-07-03T06:41:41.001Z,19.70
2018-07-03T06:44:10.662Z,19.80
2018-07-03T06:49:06.464Z,20.00
2018-07-03T06:51:34.550Z,20.20
2018-07-03T06:56:31.335Z,20.40
2018-07-03T06:58:59.370Z,20.60
2018-07-03T07:01:27.685Z,20.90
2018-07-03T07:03:55.571Z,21.10
2018-07-03T07:06:23.505Z,21.20
2018-07-03T07:08:51.441Z,21.30
2018-07-03T07:11:19.343Z,21.20
2018-07-03T07:13:47.241Z,21.30
2018-07-03T07:16:15.198Z,21.30
2018-07-03T07:18:43.129Z,21.30
2018-07-03T07:21:11.047Z,21.30
2018-07-03T07:26:06.719Z,21.50
2018-07-03T07:28:34.645Z,21.50
2018-07-03T07:31:02.583Z,21.60
2018-07-03T07:35:59.335Z,21.60
2018-07-03T07:43:22.970Z,22.00
2018-07-03T07:45:50.898Z,21.90
2018-07-03T07:50:46.771Z,22.10
2018-07-03T07:55:42.432Z,22.10
2018-07-03T07:58:11.075Z,22.20
2018-07-03T08:00:39.020Z,22.20
2018-07-03T08:04:26.387Z,22.50
2018-07-03T08:06:54.309Z,22.50
2018-07-03T08:09:22.418Z,22.40
2018-07-03T08:14:18.087Z,22.40
2018-07-03T08:16:46.016Z,22.40
2018-07-03T08:19:14.063Z,22.50
2018-07-03T08:21:41.935Z,22.50
2018-07-03T08:24:09.810Z,22.60
2018-07-03T08:26:37.723Z,22.60
2018-07-03T08:29:05.656Z,22.60
2018-07-03T08:31:34.386Z,22.60
2018-07-03T08:34:02.332Z,22.70
2018-07-03T08:36:30.906Z,22.90
2018-07-03T08:43:54.966Z,23.00
2018-07-03T08:46:22.888Z,23.00
2018-07-03T08:48:50.798Z,23.10
2018-07-03T08:51:19.365Z,23.10
2018-07-03T08:53:47.325Z,23.10
2018-07-03T08:56:15.262Z,23.20
2018-07-03T08:58:45.509Z,23.40
2018-07-03T09:01:13.775Z,23.30
2018-07-03T09:03:41.762Z,23.40
2018-07-03T09:11:05.415Z,23.40
2018-07-03T09:16:06.476Z,23.60
2018-07-03T09:18:34.691Z,23.90
2018-07-03T09:21:02.729Z,23.60
2018-07-03T09:23:31.836Z,24.00
2018-07-03T09:28:28.723Z,24.20
2018-07-03T09:30:56.739Z,24.30
2018-07-03T09:33:25.860Z,24.30
2018-07-03T09:38:21.592Z,24.20
2018-07-03T09:43:18.113Z,24.10
2018-07-03T09:48:14.116Z,24.10
2018-07-03T09:50:42.392Z,24.20
2018-07-03T09:53:10.393Z,24.20
2018-07-03T09:55:38.938Z,24.20
2018-07-03T10:00:55.971Z,24.00
2018-07-03T10:03:25.686Z,23.90
2018-07-03T10:05:57.863Z,23.90
2018-07-03T10:08:27.378Z,24.20
2018-07-03T10:10:55.585Z,24.30
2018-07-03T10:13:23.455Z,24.50
2018-07-03T10:15:51.377Z,24.50
2018-07-03T10:18:19.292Z,24.50
2018-07-03T10:23:15.160Z,24.50
2018-07-03T10:25:43.136Z,24.80
2018-07-03T10:28:11.539Z,25.00
2018-07-03T10:30:39.583Z,25.00
2018-07-03T10:38:03.031Z,25.90
2018-07-03T10:40:30.937Z,26.30
2018-07-03T10:42:58.975Z,26.50
2018-07-03T10:45:27.304Z,26.80
2018-07-03T10:47:55.263Z,26.90
2018-07-03T10:52:52.843Z,26.90
2018-07-03T10:57:48.779Z,26.60
2018-07-03T11:05:13.191Z,26.60
2018-07-03T11:07:41.692Z,26.60
2018-07-03T11:10:09.775Z,26.50
2018-07-03T11:12:37.816Z,26.30
2018-07-03T11:20:01.640Z,26.00
2018-07-03T11:22:29.490Z,26.20
2018-07-03T11:27:25.403Z,26.50
2018-07-03T11:29:53.319Z,26.50
2018-07-03T11:32:21.887Z,26.40
2018-07-03T11:37:18.332Z,26.20
2018-07-03T11:42:14.707Z,26.40
2018-07-03T11:44:42.821Z,26.40
2018-07-03T11:47:10.700Z,26.50
2018-07-03T11:49:38.581Z,26.60
2018-07-03T11:54:34.525Z,26.60
2018-07-03T11:57:02.429Z,26.50
2018-07-03T11:59:30.329Z,26.20
2018-07-03T12:01:58.261Z,26.30
2018-07-03T12:04:26.586Z,26.40
2018-07-03T12:06:55.204Z,26.70
2018-07-03T12:09:23.160Z,27.00
2018-07-03T12:14:18.960Z,27.40
2018-07-03T12:16:47.132Z,27.50
2018-07-03T12:19:15.113Z,27.50
2018-07-03T12:21:43.127Z,27.60
2018-07-03T12:29:42.766Z,27.40
2018-07-03T12:39:34.227Z,28.20
2018-07-03T12:42:02.130Z,28.30
2018-07-03T12:44:30.177Z,28.30
2018-07-03T12:49:25.894Z,28.00
2018-07-03T12:51:53.820Z,28.00
2018-07-03T12:54:21.709Z,27.80
2018-07-03T12:56:52.043Z,27.50
2018-07-03T13:01:47.796Z,27.00
2018-07-03T13:06:43.614Z,27.00
2018-07-03T13:09:12.249Z,27.00
2018-07-03T13:11:40.311Z,27.00
2018-07-03T13:14:08.253Z,27.00
2018-07-03T13:16:36.195Z,27.10
2018-07-03T13:19:04.190Z,27.10
2018-07-03T13:21:32.494Z,27.20
2018-07-03T13:24:01.398Z,27.20
2018-07-03T13:26:29.308Z,27.50
2018-07-03T13:28:57.218Z,27.40
2018-07-03T13:33:52.957Z,27.40
2018-07-03T13:36:20.893Z,27.50
2018-07-03T13:38:48.950Z,27.60
2018-07-03T13:41:16.952Z,27.40
2018-07-03T13:43:44.842Z,27.40
2018-07-03T13:51:08.255Z,27.10
2018-07-03T13:53:36.248Z,27.10
2018-07-03T13:56:04.161Z,27.10
2018-07-03T14:01:00.404Z,27.00
2018-07-03T14:05:56.174Z,27.00
2018-07-03T14:08:24.676Z,26.90
2018-07-03T14:10:53.017Z,26.90
2018-07-03T14:13:20.971Z,26.90
2018-07-03T14:15:48.943Z,27.00
2018-07-03T14:18:21.409Z,27.20
2018-07-03T14:23:17.169Z,27.50
2018-07-03T14:25:45.046Z,27.40
2018-07-03T14:28:12.907Z,27.50
2018-07-03T14:33:08.699Z,27.60
2018-07-03T14:35:36.578Z,27.80
2018-07-03T14:38:04.539Z,27.60
2018-07-03T14:40:33.237Z,27.50
2018-07-03T14:43:01.187Z,27.30
2018-07-03T14:45:29.131Z,27.30
2018-07-03T14:47:57.148Z,27.30
2018-07-03T14:52:52.893Z,27.20
2018-07-03T14:55:21.123Z,27.20
2018-07-03T14:57:49.223Z,27.30
2018-07-03T15:00:17.530Z,27.10
2018-07-03T15:02:45.407Z,27.10
2018-07-03T15:05:13.360Z,27.40
2018-07-03T15:07:41.262Z,27.30
2018-07-03T15:10:09.282Z,27.40
2018-07-03T15:12:37.236Z,27.60
2018-07-03T15:15:05.356Z,27.70
2018-07-03T15:17:33.445Z,27.60
2018-07-03T15:20:01.423Z,27.50
2018-07-03T15:22:29.612Z,27.40
2018-07-03T15:24:58.075Z,27.40
2018-07-03T15:27:26.171Z,27.50
2018-07-03T15:29:54.682Z,27.40
2018-07-03T15:32:22.626Z,27.40
2018-07-03T15:34:50.576Z,27.40
2018-07-03T15:37:18.530Z,27.30
2018-07-03T15:39:46.474Z,27.30
2018-07-03T15:47:16.789Z,27.00
2018-07-03T15:49:44.710Z,27.20
2018-07-03T15:52:12.629Z,27.10
2018-07-03T15:54:40.716Z,27.10
2018-07-03T15:59:36.916Z,27.10
2018-07-03T16:02:04.844Z,27.20
2018-07-03T16:09:20.069Z,27.20
2018-07-03T16:11:48.022Z,27.30
2018-07-03T16:14:16.059Z,27.30
2018-07-03T16:16:44.015Z,27.40
2018-07-03T16:19:17.754Z,27.70
2018-07-03T16:21:46.249Z,27.80
2018-07-03T16:24:14.182Z,27.80
2018-07-03T16:26:42.153Z,27.70
2018-07-03T16:29:11.359Z,27.50
2018-07-03T16:31:39.351Z,27.50
2018-07-03T16:34:07.260Z,27.70
2018-07-03T16:36:35.802Z,27.80
2018-07-03T16:41:34.540Z,28.40
2018-07-03T16:44:02.558Z,28.60
2018-07-03T16:48:58.398Z,28.30
2018-07-03T16:51:26.326Z,28.10
2018-07-03T16:53:54.310Z,27.70
2018-07-03T16:58:50.666Z,27.40
2018-07-03T17:01:18.579Z,27.30
2018-07-03T17:06:14.262Z,27.10
2018-07-03T17:08:42.225Z,27.00
2018-07-03T17:11:10.430Z,26.90
2018-07-03T17:13:38.421Z,26.90
2018-07-03T17:16:06.581Z,26.90
2018-07-03T17:25:58.868Z,26.80
2018-07-03T17:28:27.263Z,26.80
2018-07-03T17:30:55.146Z,26.60
2018-07-03T17:33:23.310Z,26.50
2018-07-03T17:35:51.586Z,26.50
2018-07-03T17:38:19.491Z,26.40
2018-07-03T17:40:58.807Z,26.20
2018-07-03T17:44:11.404Z,26.20
2018-07-03T17:49:07.428Z,26.00
2018-07-03T17:51:36.020Z,26.00
2018-07-03T17:56:32.355Z,25.90
2018-07-03T17:59:00.649Z,25.80
2018-07-03T18:01:28.549Z,25.60
2018-07-03T18:03:56.761Z,25.60
2018-07-03T18:08:52.614Z,25.30
2018-07-03T18:11:20.892Z,25.20
2018-07-03T18:16:17.339Z,25.10
2018-07-03T18:21:13.926Z,25.00
2018-07-03T18:23:41.979Z,24.80
2018-07-03T18:26:09.914Z,24.80
2018-07-03T18:31:05.659Z,24.50
2018-07-03T18:36:01.517Z,24.20
2018-07-03T18:38:29.504Z,24.00
2018-07-03T18:40:57.414Z,23.80
2018-07-03T18:43:25.438Z,23.70
2018-07-03T18:45:53.442Z,23.50
2018-07-03T18:48:21.660Z,23.40
2018-07-03T18:50:49.566Z,23.30
2018-07-03T18:53:17.479Z,23.20
2018-07-03T18:58:13.321Z,23.10
2018-07-03T19:00:42.044Z,23.00
2018-07-03T19:03:10.322Z,22.80
2018-07-03T19:05:39.066Z,22.60
2018-07-03T19:10:34.921Z,22.30
2018-07-03T19:13:02.780Z,22.20
2018-07-03T19:17:58.442Z,22.00
2018-07-03T19:20:26.510Z,21.90
2018-07-03T19:22:54.871Z,21.90
2018-07-03T19:27:50.587Z,21.70
2018-07-03T19:30:18.528Z,21.40
2018-07-03T19:32:46.547Z,21.10
2018-07-03T19:35:14.471Z,20.90
2018-07-03T19:37:42.603Z,20.70
2018-07-03T19:40:10.576Z,20.70
2018-07-03T19:42:48.643Z,20.60
2018-07-03T19:45:16.736Z,20.50
2018-07-03T19:47:44.694Z,20.40
2018-07-03T19:52:41.022Z,20.20
2018-07-03T19:55:08.949Z,20.10
2018-07-03T19:57:36.915Z,20.10
2018-07-03T20:00:05.119Z,20.00
2018-07-03T20:02:33.139Z,19.80
2018-07-03T20:05:01.042Z,19.90
2018-07-03T20:07:28.986Z,19.80
2018-07-03T20:09:57.026Z,19.80
2018-07-03T20:12:25.615Z,19.70
2018-07-03T20:14:54.094Z,19.70
2018-07-03T20:19:50.063Z,19.50
2018-07-03T20:22:22.810Z,19.40
2018-07-03T20:27:18.853Z,19.10
2018-07-03T20:29:46.763Z,19.10
2018-07-03T20:32:14.695Z,18.90
2018-07-03T20:34:43.209Z,18.70
2018-07-03T20:37:11.155Z,18.50
2018-07-03T20:42:07.585Z,18.60
2018-07-03T20:44:35.469Z,18.70
2018-07-03T20:47:03.351Z,18.60
2018-07-03T20:49:31.477Z,18.50
2018-07-03T20:51:59.388Z,18.20
2018-07-03T20:54:27.307Z,18.00
2018-07-03T20:56:55.215Z,17.90
2018-07-03T21:01:50.873Z,17.90
2018-07-03T21:04:19.033Z,17.80
2018-07-03T21:06:46.912Z,17.80
2018-07-03T21:09:14.826Z,17.70
2018-07-03T21:11:42.647Z,17.60
2018-07-03T21:14:11.474Z,17.50
2018-07-03T21:16:39.336Z,17.40
2018-07-03T21:19:07.888Z,17.50
2018-07-03T21:21:35.909Z,17.50
2018-07-03T21:24:04.508Z,17.50
2018-07-03T21:26:32.396Z,17.40
2018-07-03T21:33:56.054Z,17.30
2018-07-03T21:36:23.995Z,17.40
2018-07-03T21:38:52.160Z,17.30
2018-07-03T21:41:20.023Z,17.30
2018-07-03T21:43:47.924Z,17.20
2018-07-03T21:46:15.944Z,16.90
2018-07-03T21:48:43.857Z,16.70
2018-07-03T21:51:11.755Z,16.80
2018-07-03T21:53:39.806Z,16.80
2018-07-03T21:56:07.701Z,16.80
2018-07-03T21:58:35.568Z,16.70
2018-07-03T22:03:31.349Z,16.20
2018-07-03T22:05:59.443Z,16.00
2018-07-03T22:08:27.337Z,15.90
2018-07-03T22:13:23.064Z,16.00
2018-07-03T22:15:50.956Z,16.00
2018-07-03T22:18:18.862Z,16.00
2018-07-03T22:20:53.117Z,16.10
2018-07-03T22:25:49.183Z,16.20
2018-07-03T22:28:17.181Z,16.10
2018-07-03T22:30:45.048Z,16.20
2018-07-03T22:33:12.997Z,16.20
2018-07-03T22:35:41.522Z,16.10
2018-07-03T22:38:10.390Z,16.00
2018-07-03T22:40:38.354Z,15.90
2018-07-03T22:43:06.313Z,15.80
2018-07-03T22:45:34.965Z,15.60
2018-07-03T22:48:02.883Z,15.30
2018-07-03T22:50:30.928Z,15.10
2018-07-03T22:55:26.774Z,15.00
2018-07-03T22:57:54.688Z,15.10
2018-07-03T23:00:22.559Z,15.20
2018-07-03T23:02:51.070Z,15.30
2018-07-03T23:07:46.731Z,15.20
2018-07-03T23:10:14.636Z,15.30
2018-07-03T23:12:42.624Z,15.40
2018-07-03T23:15:10.831Z,15.40
2018-07-03T23:17:38.727Z,15.40
2018-07-03T23:20:06.727Z,15.20
2018-07-03T23:22:34.822Z,15.10
2018-07-03T23:25:02.739Z,14.90
2018-07-03T23:27:30.907Z,14.70
2018-07-03T23:29:58.774Z,14.60
2018-07-03T23:32:26.795Z,14.50
2018-07-03T23:34:54.711Z,14.40
2018-07-03T23:37:22.656Z,14.40
2018-07-03T23:39:50.538Z,14.40
2018-07-03T23:44:46.715Z,14.30
2018-07-03T23:47:25.839Z,14.20
2018-07-03T23:50:05.099Z,14.10
2018-07-03T23:52:45.315Z,14.10
2018-07-03T23:55:24.463Z,14.10
2018-07-03T23:58:04.691Z,14.10
